Latest Weather Observations for Camden

IDN60801

Issued at 11:06 am EDT Thursday 29 January 2015 (issued every 30 minutes, with the page automatically refreshed every 10 minutes)

About weather observations | Map of weather stations | Latest weather observations for NSW | Other Formats
Station Details ID: 068192 Name: CAMDEN AIRPORT AWS Lat: -34.04 Lon: 150.69 Height: 73.9 m
Data from the previous 72 hours. | See also: Recent months at Camden
Date/Time
EDT
Temp
°C
App
Temp
°C
Dew
Point
Rel
Hum
%
Delta-T
°C
Wind Press
QNH
hPa
Press
MSL
hPa
Rain
since 9 am
mm
Dir
 
Spd
km/h
Gust
km/h
Spd
kts
Gust
kts
29/11:00am 20.6 15.1 5.8 38 7.4 SSW 24 35 13 19 1013.1 1012.8 0.0
29/10:30am 20.4 15.5 7.1 42 6.8 SSW 22 32 12 17 1013.3 1013.0 0.0
29/10:00am 19.9 15.4 7.0 43 6.6 SSW 20 28 11 15 1013.6 1013.3 0.0
29/09:30am 19.3 15.5 7.7 47 6.0 SSW 17 30 9 16 1013.7 1013.4 0.0
29/09:00am 18.1 13.8 6.9 48 5.6 SW 19 26 10 14 1013.6 1013.3 2.8
29/08:30am 17.5 12.7 7.3 51 5.1 SW 22 33 12 18 1013.7 1013.4 2.8
29/08:00am 16.8 12.1 7.7 55 4.6 SW 22 32 12 17 1013.6 1013.3 2.8
29/07:30am 16.2 12.2 8.2 59 4.1 SW 19 28 10 15 1013.4 1013.1 2.8
29/07:00am 15.4 11.8 8.4 63 3.6 SW 17 22 9 12 1013.1 1012.8 2.8
29/06:30am 14.3 11.5 8.5 68 2.9 SW 13 17 7 9 1013.0 1012.7 2.8
29/06:00am 15.2 11.4 9.1 67 3.1 SW 19 26 10 14 1012.6 1012.3 2.8
29/05:30am 15.2 12.3 9.8 70 2.8 SW 15 20 8 11 1012.5 1012.2 2.8
29/05:00am 15.2 12.5 10.2 72 2.6 SW 15 20 8 11 1012.4 1012.1 2.8
29/04:30am 14.9 13.1 10.7 76 2.2 WSW 11 19 6 10 1012.5 1012.2 2.8
29/04:00am 14.5 13.1 10.9 79 1.9 SW 9 17 5 9 1012.7 1012.4 2.8
29/03:30am 13.9 13.4 10.7 81 1.7 WSW 4 7 2 4 1012.8 1012.5 2.8
29/03:00am 13.7 12.9 11.0 84 1.4 NW 6 9 3 5 1013.0 1012.7 2.8
29/02:30am 14.0 13.1 10.6 80 1.8 W 6 7 3 4 1013.0 1012.7 2.8
29/02:00am 15.1 13.8 11.1 77 2.1 SW 9 13 5 7 1013.4 1013.1 2.8
29/01:30am 15.1 13.7 10.9 76 2.2 SW 9 11 5 6 1013.9 1013.6 2.8
29/01:00am 15.1 14.1 10.9 76 2.2 W 7 11 4 6 1013.9 1013.6 2.8
29/12:30am 15.2 14.1 10.8 75 2.3 SW 7 13 4 7 1014.0 1013.7 2.8
29/12:00am 15.2 14.1 10.8 75 2.3 W 7 11 4 6 1014.1 1013.8 2.8
 
Date/Time
EDT
Temp
°C
App
Temp
°C
Dew
Point
Rel
Hum
%
Delta-T
°C
Wind Press
QNH
hPa
Press
MSL
hPa
Rain
since 9 am
mm
Dir
 
Spd
km/h
Gust
km/h
Spd
kts
Gust
kts
28/11:30pm 15.5 13.6 10.5 72 2.6 SW 11 15 6 8 1014.2 1013.9 2.8
28/11:00pm 16.1 13.8 10.6 70 2.9 SW 13 19 7 10 1014.4 1014.1 2.8
28/10:30pm 16.2 14.0 10.7 70 2.9 SW 13 19 7 10 1014.7 1014.4 2.8
28/10:00pm 15.8 14.9 11.2 74 2.5 W 7 9 4 5 1014.6 1014.3 2.8
28/09:30pm 16.4 15.4 11.1 71 2.9 SW 7 11 4 6 1014.5 1014.2 2.8
28/09:00pm 17.0 15.5 10.6 66 3.4 SSW 9 15 5 8 1014.5 1014.2 2.8
28/08:30pm 18.0 15.1 10.9 63 3.8 S 17 24 9 13 1014.4 1014.1 2.8
28/08:00pm 18.2 16.5 11.3 64 3.8 SSW 11 17 6 9 1014.3 1014.0 2.8
28/07:30pm 18.7 16.3 11.3 62 4.1 SSW 15 24 8 13 1014.1 1013.8 2.8
28/07:00pm 18.8 16.1 11.6 63 4.0 SSW 17 20 9 11 1013.8 1013.5 2.8
28/06:30pm 19.2 14.8 11.7 62 4.1 S 26 39 14 21 1013.9 1013.6 2.8
28/06:00pm 20.6 17.1 12.1 58 4.8 SSE 22 30 12 16 1013.5 1013.2 2.8
28/05:30pm 21.4 18.9 12.3 56 5.1 SSE 17 24 9 13 1013.4 1013.1 2.8
28/05:00pm 21.1 19.0 12.3 57 5.0 SSE 15 24 8 13 1013.3 1013.0 2.8
28/04:30pm 22.1 19.4 12.9 56 5.3 S 19 30 10 16 1013.4 1013.1 2.8
28/04:00pm 20.8 18.9 13.0 61 4.5 SSE 15 28 8 15 1013.6 1013.3 2.8
28/03:30pm 20.3 17.4 12.8 62 4.3 SSE 20 28 11 15 1013.8 1013.5 2.8
28/03:00pm 18.5 16.9 13.8 74 2.7 SSE 15 28 8 15 1014.2 1013.9 2.8
28/02:30pm 20.4 17.7 12.9 62 4.3 S 19 30 10 16 1014.0 1013.7 2.6
28/02:00pm 20.8 19.2 14.9 69 3.5 S 17 26 9 14 1014.4 1014.1 2.6
28/01:30pm 19.9 18.1 14.5 71 3.2 S 17 24 9 13 1014.7 1014.4 2.6
28/01:00pm 19.0 18.7 15.5 80 2.1 SSW 11 19 6 10 1014.7 1014.4 2.6
28/12:30pm 17.9 18.6 16.2 90 1.0 WSW 7 9 4 5 1015.0 1014.7 2.6
28/12:00pm 17.7 18.6 16.0 90 1.0 SSE 6 9 3 5 1015.1 1014.8 2.2
28/11:57am 17.7 18.4 16.0 90 1.0 S 7 19 4 10 1015.1 1014.8 2.2
28/11:41am 17.1 16.4 15.4 90 1.0 SW 13 20 7 11 1015.1 1014.8 2.0
28/11:30am 17.5 17.2 15.5 88 1.2 SW 11 17 6 9 1015.0 1014.7 1.0
28/11:00am 17.6 17.3 15.4 87 1.3 SW 11 15 6 8 1014.9 1014.6 1.0
28/10:30am 17.4 17.5 15.6 89 1.1 SSW 9 13 5 7 1014.8 1014.5 1.0
28/10:00am 17.2 17.1 15.9 92 0.8 SSW 11 15 6 8 1014.6 1014.3 1.0
28/09:30am 16.7 16.4 15.4 92 0.8 SSW 11 15 6 8 1014.6 1014.3 0.6
28/09:24am 16.6 16.6 15.3 92 0.8 S 9 15 5 8 1014.6 1014.3 0.4
28/09:05am 16.6 15.7 14.8 89 1.0 S 13 19 7 10 1014.4 1014.1 0.2
28/09:00am 16.8 16.3 15.0 89 1.0 S 11 15 6 8 1014.3 1014.0 41.8
28/08:30am 16.5 15.2 14.9 90 0.9 SSW 15 17 8 9 1013.9 1013.6 41.6
28/08:00am 16.3 15.4 14.8 91 0.9 S 13 20 7 11 1013.7 1013.4 41.6
28/07:30am 17.2 15.7 14.3 83 1.7 SSW 15 20 8 11 1013.1 1012.8 40.8
28/07:00am 17.2 16.6 14.5 84 1.6 SSW 11 15 6 8 1012.8 1012.5 40.8
28/06:30am 16.9 16.6 14.4 85 1.4 SSW 9 13 5 7 1012.4 1012.1 40.8
28/06:00am 16.9 16.8 14.9 88 1.2 SSW 9 13 5 7 1012.1 1011.8 40.8
28/05:30am 16.7 17.1 15.4 92 0.8 SSW 7 9 4 5 1011.9 1011.6 40.8
28/05:00am 16.8 16.9 15.5 92 0.8 SW 9 13 5 7 1011.9 1011.6 40.8
28/04:30am 17.0 16.7 15.5 91 0.9 SW 11 15 6 8 1012.0 1011.7 40.8
28/04:00am 16.8 16.6 15.7 93 0.6 SSW 11 15 6 8 1012.0 1011.7 40.8
28/03:30am 16.9 16.4 15.8 93 0.6 SSW 13 19 7 10 1012.2 1011.9 40.8
28/03:00am 16.8 17.1 16.0 95 0.5 SSW 9 13 5 7 1012.4 1012.1 40.8
28/02:30am 16.8 16.4 16.3 97 0.3 SW 13 15 7 8 1012.6 1012.3 40.8
28/02:00am 16.9 17.4 16.6 98 0.2 SSW 9 11 5 6 1012.9 1012.6 40.6
28/01:53am 16.9 17.8 16.6 98 0.2 SSW 7 9 4 5 1013.0 1012.7 40.4
28/01:46am 16.8 17.3 16.5 98 0.2 SSW 9 11 5 6 1013.0 1012.7 40.2
28/01:30am 16.8 17.3 16.5 98 0.2 SSW 9 13 5 7 1013.0 1012.7 39.6
28/01:03am 16.8 17.7 16.5 98 0.2 S 7 9 4 5 1013.2 1012.9 37.4
28/01:00am 16.8 17.7 16.5 98 0.2 S 7 9 4 5 1013.2 1012.9 37.0
28/12:58am 16.9 17.8 16.6 98 0.2 S 7 11 4 6 1013.1 1012.8 36.8
28/12:37am 17.0 17.6 16.8 99 0.1 SW 9 15 5 8 1013.3 1013.0 35.0
28/12:30am 17.0 18.2 16.8 99 0.1 W 6 11 3 6 1013.2 1012.9 34.6
28/12:28am 17.0 18.2 16.8 99 0.1 NW 6 11 3 6 1013.2 1012.9 34.6
28/12:00am 17.1 18.7 16.8 98 0.2 NNW 4 6 2 3 1013.4 1013.1 33.2
 
Date/Time
EDT
Temp
°C
App
Temp
°C
Dew
Point
Rel
Hum
%
Delta-T
°C
Wind Press
QNH
hPa
Press
MSL
hPa
Rain
since 9 am
mm
Dir
 
Spd
km/h
Gust
km/h
Spd
kts
Gust
kts
27/11:30pm 17.2 18.4 16.9 98 0.2 NW 6 7 3 4 1013.7 1013.4 32.0
27/11:23pm 17.3 18.6 17.0 98 0.2 NNW 6 7 3 4 1013.7 1013.4 31.4
27/11:11pm 17.3 18.5 16.8 97 0.3 NNW 6 7 3 4 1013.6 1013.3 30.2
27/11:09pm 17.3 18.5 16.8 97 0.3 NNW 6 7 3 4 1013.6 1013.3 30.0
27/11:00pm 17.3 19.2 16.8 97 0.3 NNW 2 7 1 4 1013.6 1013.3 29.8
27/10:56pm 17.2 19.5 16.7 97 0.3 CALM 0 0 0 0 1013.6 1013.3 29.8
27/10:30pm 17.2 19.4 16.4 95 0.5 CALM 0 0 0 0 1013.6 1013.3 28.6
27/10:20pm 17.3 19.5 16.5 95 0.5 CALM 0 0 0 0 1013.7 1013.4 28.4
27/10:13pm 17.5 19.7 16.5 94 0.6 CALM 0 0 0 0 1013.8 1013.5 28.2
27/10:10pm 17.4 19.6 16.4 94 0.6 CALM 0 0 0 0 1013.8 1013.5 28.2
27/10:00pm 17.3 19.4 16.2 93 0.7 CALM 0 6 0 3 1013.6 1013.3 28.2
27/09:58pm 17.3 19.0 16.2 93 0.7 NE 2 9 1 5 1013.6 1013.3 28.2
27/09:51pm 17.4 18.4 16.3 93 0.7 NE 6 11 3 6 1013.7 1013.4 28.0
27/09:49pm 17.4 18.4 16.3 93 0.7 NE 6 11 3 6 1013.7 1013.4 28.0
27/09:30pm 17.6 19.2 15.9 90 1.0 SE 2 7 1 4 1013.2 1012.9 27.0
27/09:24pm 17.8 18.7 16.0 89 1.1 SSE 6 9 3 5 1013.2 1012.9 26.4
27/09:00pm 17.8 18.1 16.0 89 1.1 SSW 9 13 5 7 1012.9 1012.6 26.0
27/08:30pm 18.6 19.7 16.6 88 1.2 SW 6 13 3 7 1013.1 1012.8 26.0
27/08:00pm 19.0 21.2 16.4 85 1.6 CALM 0 0 0 0 1012.8 1012.5 26.0
27/07:30pm 19.1 20.0 16.1 83 1.8 S 6 7 3 4 1012.6 1012.3 26.0
27/07:00pm 19.2 19.5 16.1 82 1.9 SSW 9 13 5 7 1012.4 1012.1 26.0
27/06:30pm 19.4 20.3 16.6 84 1.7 SSW 7 9 4 5 1012.3 1012.0 26.0
27/06:00pm 19.4 19.7 16.1 81 2.0 SE 9 13 5 7 1012.1 1011.8 26.0
27/05:30pm 19.5 20.3 16.3 82 1.9 SE 7 11 4 6 1012.1 1011.8 26.0
27/05:00pm 19.6 20.1 16.6 83 1.8 SSE 9 15 5 8 1012.5 1012.2 26.0
27/04:49pm 19.5 19.6 16.5 83 1.8 SSE 11 13 6 7 1012.6 1012.3 26.0
27/04:30pm 19.7 19.8 16.5 82 1.9 SSE 11 19 6 10 1012.5 1012.2 26.0
27/04:00pm 19.6 20.4 17.4 87 1.3 SE 9 11 5 6 1012.5 1012.2 26.0
27/03:37pm 19.3 20.1 17.4 89 1.2 SSE 9 17 5 9 1012.8 1012.5 26.0
27/03:30pm 19.3 20.0 18.0 92 0.8 SSE 11 19 6 10 1012.8 1012.5 26.0
27/03:25pm 19.0 19.1 17.5 91 0.9 SSE 13 19 7 10 1012.8 1012.5 26.0
27/03:00pm 19.1 18.9 17.6 91 0.9 SSE 15 19 8 10 1012.9 1012.6 26.0
27/02:37pm 18.8 19.8 17.8 94 0.6 SSE 9 13 5 7 1013.3 1013.0 26.0
27/02:30pm 18.8 19.9 18.0 95 0.5 SSE 9 11 5 6 1013.3 1013.0 26.0
27/02:27pm 19.0 20.2 18.2 95 0.5 SSE 9 11 5 6 1013.3 1013.0 26.0
27/02:17pm 18.9 20.5 18.2 96 0.4 SSE 7 9 4 5 1013.4 1013.1 26.0
27/02:00pm 18.4 19.3 17.6 95 0.5 SSE 9 13 5 7 1013.5 1013.2 25.2
27/01:58pm 18.5 19.5 17.7 95 0.5 SSE 9 15 5 8 1013.5 1013.2 25.2
27/01:38pm 18.4 20.2 17.4 94 0.6 SSE 4 11 2 6 1013.5 1013.2 24.2
27/01:33pm 18.3 20.1 17.3 94 0.6 SSE 4 9 2 5 1013.5 1013.2 24.2
27/01:30pm 18.3 19.7 17.3 94 0.6 SSE 6 11 3 6 1013.5 1013.2 24.2
27/01:19pm 18.3 19.2 17.5 95 0.5 SSE 9 13 5 7 1013.5 1013.2 24.0
27/01:12pm 18.5 20.1 17.8 96 0.4 SE 6 9 3 5 1013.6 1013.3 24.0
27/01:11pm 18.5 20.5 17.8 96 0.4 ESE 4 9 2 5 1013.6 1013.3 24.0
27/01:00pm 18.4 20.7 17.8 96 0.4 E 2 9 1 5 1013.8 1013.5 24.0
27/12:47pm 18.3 19.7 17.7 96 0.4 E 7 9 4 5 1013.9 1013.6 23.4
27/12:34pm 18.2 19.5 17.6 96 0.4 SSE 7 11 4 6 1014.0 1013.7 22.0
27/12:30pm 18.2 19.1 17.6 96 0.4 SSE 9 11 5 6 1014.0 1013.7 21.8
27/12:00pm 18.3 19.0 18.0 98 0.2 SE 11 17 6 9 1014.2 1013.9 19.2
27/11:30am 18.0 18.9 17.5 97 0.3 SW 9 15 5 8 1014.4 1014.1 14.4
27/11:04am 18.1 18.7 17.6 97 0.3 SSW 11 15 6 8 1014.1 1013.8 8.6
27/11:00am 18.0 18.9 17.5 97 0.3 SSW 9 15 5 8 1014.1 1013.8 8.2
27/10:30am 18.2 19.3 17.9 98 0.2 SSW 9 13 5 7 1014.1 1013.8 7.8
27/10:28am 18.2 18.9 17.9 98 0.2 SSW 11 13 6 7 1014.1 1013.8 7.8
27/10:11am 18.1 18.7 17.8 98 0.2 S 11 15 6 8 1013.9 1013.6 7.6
27/10:10am 18.1 18.7 17.8 98 0.2 S 11 13 6 7 1013.9 1013.6 7.6
27/10:00am 18.0 18.6 17.7 98 0.2 SSW 11 15 6 8 1013.8 1013.5 7.4
27/09:30am 17.7 18.0 17.1 96 0.4 SW 11 15 6 8 1014.0 1013.7 1.8
27/09:22am 17.9 18.7 17.3 96 0.4 SW 9 13 5 7 1013.9 1013.6 0.4
27/09:19am 17.9 18.7 17.3 96 0.4 SW 9 13 5 7 1013.8 1013.5 0.2
27/09:00am 18.0 18.5 17.4 96 0.4 SSW 11 15 6 8 1013.6 1013.3 7.8
27/08:46am 18.0 18.8 17.4 96 0.4 SSW 9 13 5 7 1013.6 1013.3 7.8
27/08:30am 17.7 18.5 17.2 97 0.3 SSW 9 11 5 6 1013.6 1013.3 7.8
27/08:27am 17.8 18.6 17.3 97 0.3 SSW 9 11 5 6 1013.6 1013.3 7.8
27/08:18am 17.7 18.5 17.2 97 0.3 SSW 9 11 5 6 1013.5 1013.2 7.8
27/08:00am 17.5 18.2 17.0 97 0.3 SSW 9 13 5 7 1013.4 1013.1 7.8
27/07:30am 17.5 18.6 17.0 97 0.3 WSW 7 9 4 5 1013.5 1013.2 7.0
27/07:00am 17.4 18.6 16.9 97 0.3 WSW 6 9 3 5 1013.1 1012.8 6.0
27/06:30am 17.4 19.4 16.9 97 0.3 WSW 2 7 1 4 1012.9 1012.6 5.6
27/06:27am 17.4 19.5 17.1 98 0.2 WSW 2 7 1 4 1012.8 1012.5 5.4
27/06:00am 17.4 18.5 17.1 98 0.2 SW 7 9 4 5 1012.6 1012.3 5.0
27/05:54am 17.4 18.5 17.1 98 0.2 SW 7 9 4 5 1012.6 1012.3 5.0
27/05:53am 17.3 18.4 17.0 98 0.2 SW 7 9 4 5 1012.5 1012.2 5.0
27/05:30am 17.3 18.4 17.0 98 0.2 SSW 7 11 4 6 1012.6 1012.3 5.0
27/05:00am 17.4 18.7 17.1 98 0.2 SSW 6 9 3 5 1012.8 1012.5 4.2
27/04:30am 17.4 18.4 16.9 97 0.3 SSW 7 9 4 5 1012.8 1012.5 3.8
27/04:20am 17.4 19.0 16.9 97 0.3 SW 4 7 2 4 1012.9 1012.6 3.4
27/04:00am 17.4 18.4 16.8 96 0.4 SSW 7 11 4 6 1013.1 1012.8 2.4
27/03:30am 17.4 18.3 16.6 95 0.5 S 7 9 4 5 1013.2 1012.9 1.6
27/03:25am 17.4 18.3 16.6 95 0.5 SSW 7 11 4 6 1013.2 1012.9 1.4
27/03:12am 17.5 18.4 16.7 95 0.5 SSW 7 9 4 5 1013.2 1012.9 1.0
27/03:00am 17.4 17.8 16.4 94 0.6 SSW 9 11 5 6 1013.2 1012.9 1.0
27/02:48am 17.5 18.6 16.5 94 0.6 SSW 6 7 3 4 1013.2 1012.9 0.8
27/02:39am 17.5 18.3 16.4 93 0.7 S 7 9 4 5 1013.2 1012.9 0.8
27/02:30am 17.5 18.3 16.4 93 0.7 S 7 13 4 7 1013.3 1013.0 0.8
27/02:25am 17.4 17.8 16.3 93 0.7 SSW 9 13 5 7 1013.3 1013.0 0.8
27/02:04am 17.4 17.8 16.4 94 0.6 SSW 9 11 5 6 1013.6 1013.3 0.6
27/02:00am 17.3 17.7 16.3 94 0.6 SSW 9 11 5 6 1013.6 1013.3 0.6
27/01:30am 17.2 17.6 16.2 94 0.6 SW 9 13 5 7 1013.8 1013.5 0.4
27/01:22am 17.1 17.5 16.3 95 0.5 SW 9 11 5 6 1014.0 1013.7 0.4
27/01:08am 17.2 17.9 16.2 94 0.6 SSW 7 11 4 6 1014.1 1013.8 0.4
27/01:00am 17.1 18.0 16.1 94 0.6 SW 6 9 3 5 1014.2 1013.9 0.4
27/12:30am 17.1 17.8 16.0 93 0.7 W 7 9 4 5 1014.6 1014.3 0.4
27/12:00am 17.0 17.6 15.7 92 0.8 SW 7 9 4 5 1014.8 1014.5 0.2
 
Date/Time
EDT
Temp
°C
App
Temp
°C
Dew
Point
Rel
Hum
%
Delta-T
°C
Wind Press
QNH
hPa
Press
MSL
hPa
Rain
since 9 am
mm
Dir
 
Spd
km/h
Gust
km/h
Spd
kts
Gust
kts
26/11:39pm 16.9 17.5 15.8 93 0.6 SW 7 9 4 5 1014.9 1014.6 0.2
26/11:30pm 17.0 17.7 16.0 94 0.6 SW 7 9 4 5 1015.0 1014.7 0.2
26/11:23pm 17.0 17.6 15.9 93 0.6 SSW 7 9 4 5 1015.2 1014.9 0.2
26/11:11pm 16.9 17.4 15.6 92 0.8 SSW 7 11 4 6 1015.3 1015.0 0.2
26/11:00pm 17.0 17.1 15.5 91 0.9 SSW 9 13 5 7 1015.3 1015.0 0.2
26/10:46pm 17.0 17.4 15.3 90 1.0 SSW 7 11 4 6 1015.3 1015.0 0.2
26/10:30pm 17.0 16.9 15.0 88 1.2 S 9 13 5 7 1015.6 1015.2 0.0
26/10:26pm 17.2 17.0 14.8 86 1.4 S 9 13 5 7 1015.6 1015.2 0.0
26/10:00pm 17.3 17.5 14.8 85 1.4 SSW 7 11 4 6 1015.6 1015.2 0.0
26/09:49pm 17.3 17.6 14.9 86 1.4 SSW 7 11 4 6 1015.6 1015.2 0.0
26/09:30pm 17.2 17.4 14.8 86 1.4 S 7 13 4 7 1015.7 1015.3 0.0
26/09:18pm 17.1 16.9 14.7 86 1.4 S 9 13 5 7 1015.6 1015.2 0.0
26/09:00pm 17.2 16.5 14.3 83 1.7 SSW 11 15 6 8 1015.5 1015.1 0.0
26/08:30pm 17.9 16.8 14.2 79 2.1 S 13 17 7 9 1015.0 1014.7 0.0
26/08:27pm 17.9 16.8 14.2 79 2.1 S 13 19 7 10 1015.0 1014.7 0.0
26/08:00pm 18.0 16.5 14.1 78 2.2 S 15 20 8 11 1015.0 1014.7 0.0
26/07:30pm 18.0 16.5 14.1 78 2.2 S 15 22 8 12 1014.7 1014.4 0.0
26/07:00pm 18.6 17.0 13.9 74 2.7 S 15 22 8 12 1014.5 1014.2 0.0
26/06:30pm 18.4 17.6 13.9 75 2.6 SSE 11 20 6 11 1014.2 1013.9 0.0
26/06:00pm 19.2 17.1 13.6 70 3.2 SSE 17 24 9 13 1013.8 1013.5 0.0
26/05:30pm 19.3 18.7 13.5 69 3.3 S 9 20 5 11 1013.8 1013.5 0.0
26/05:00pm 20.0 18.6 13.5 66 3.7 SE 13 17 7 9 1013.8 1013.5 0.0
26/04:30pm 19.9 18.5 13.4 66 3.7 S 13 22 7 12 1014.0 1013.7 0.0
26/04:00pm 19.7 18.3 13.4 67 3.6 S 13 19 7 10 1014.0 1013.7 0.0
26/03:30pm 19.8 17.7 13.5 67 3.6 S 17 22 9 12 1013.9 1013.6 0.0
26/03:00pm 20.6 18.4 13.3 63 4.2 S 17 24 9 13 1013.8 1013.5 0.0
26/02:30pm 20.3 19.0 13.7 66 3.8 SSE 13 19 7 10 1013.9 1013.6 0.0
26/02:00pm 19.8 18.5 13.7 68 3.5 S 13 19 7 10 1014.2 1013.9 0.0
26/01:30pm 19.3 17.6 13.7 70 3.2 SSE 15 22 8 12 1014.4 1014.1 0.0
26/01:00pm 19.4 17.8 13.8 70 3.2 S 15 20 8 11 1014.4 1014.1 0.0
26/12:30pm 20.1 18.7 13.3 65 3.9 SE 13 20 7 11 1014.3 1014.0 0.0
26/12:00pm 20.6 19.0 13.8 65 3.9 SSE 15 24 8 13 1014.2 1013.9 0.0
26/11:30am 20.5 19.6 13.7 65 3.9 S 11 15 6 8 1014.3 1014.0 0.0

Other Formats:

Comma delimited format used in spreadsheet applications
http://www.bom.gov.au/fwo/IDN60801/IDN60801.94755.axf

JavaScript Object Notation format (JSON) in row-major order
http://www.bom.gov.au/fwo/IDN60801/IDN60801.94755.json